sensor_id;sensor_type;location;lat;lon;timestamp;P1;durP1;ratioP1;P2;durP2;ratioP2
48665;SDS011;34452;50.796;4.994;2023-03-23T00:01:20;4.95;;;2.28;;
48665;SDS011;34452;50.796;4.994;2023-03-23T00:03:49;5.78;;;2.60;;
48665;SDS011;34452;50.796;4.994;2023-03-23T00:06:17;5.35;;;2.28;;
48665;SDS011;34452;50.796;4.994;2023-03-23T00:08:46;2.88;;;2.30;;
48665;SDS011;34452;50.796;4.994;2023-03-23T00:11:15;4.35;;;2.45;;
48665;SDS011;34452;50.796;4.994;2023-03-23T00:13:44;4.35;;;2.45;;
48665;SDS011;34452;50.796;4.994;2023-03-23T00:16:11;5.57;;;2.22;;
48665;SDS011;34452;50.796;4.994;2023-03-23T00:18:57;3.88;;;2.22;;
48665;SDS011;34452;50.796;4.994;2023-03-23T00:21:26;5.82;;;2.55;;
48665;SDS011;34452;50.796;4.994;2023-03-23T00:24:14;5.82;;;2.75;;
48665;SDS011;34452;50.796;4.994;2023-03-23T00:26:42;4.97;;;2.65;;
48665;SDS011;34452;50.796;4.994;2023-03-23T00:29:12;5.50;;;2.72;;
48665;SDS011;34452;50.796;4.994;2023-03-23T00:31:40;5.95;;;2.30;;
48665;SDS011;34452;50.796;4.994;2023-03-23T00:34:12;6.53;;;2.25;;
48665;SDS011;34452;50.796;4.994;2023-03-23T00:36:57;5.45;;;2.72;;
48665;SDS011;34452;50.796;4.994;2023-03-23T00:41:50;5.43;;;2.70;;
48665;SDS011;34452;50.796;4.994;2023-03-23T00:44:16;5.65;;;2.53;;
48665;SDS011;34452;50.796;4.994;2023-03-23T00:46:43;7.78;;;2.75;;
48665;SDS011;34452;50.796;4.994;2023-03-23T00:49:10;5.22;;;2.70;;
48665;SDS011;34452;50.796;4.994;2023-03-23T00:51:37;5.97;;;3.03;;
48665;SDS011;34452;50.796;4.994;2023-03-23T00:56:29;4.30;;;2.40;;
48665;SDS011;34452;50.796;4.994;2023-03-23T00:58:55;6.25;;;2.63;;
48665;SDS011;34452;50.796;4.994;2023-03-23T01:01:21;3.92;;;2.85;;
48665;SDS011;34452;50.796;4.994;2023-03-23T01:03:47;5.85;;;3.20;;
48665;SDS011;34452;50.796;4.994;2023-03-23T01:06:14;6.35;;;3.20;;
48665;SDS011;34452;50.796;4.994;2023-03-23T01:08:40;5.88;;;2.72;;
48665;SDS011;34452;50.796;4.994;2023-03-23T01:11:11;3.42;;;2.28;;
48665;SDS011;34452;50.796;4.994;2023-03-23T01:13:39;3.97;;;2.60;;
48665;SDS011;34452;50.796;4.994;2023-03-23T01:16:06;6.13;;;3.08;;
48665;SDS011;34452;50.796;4.994;2023-03-23T01:18:32;4.68;;;3.08;;
48665;SDS011;34452;50.796;4.994;2023-03-23T01:20:57;4.95;;;2.58;;
48665;SDS011;34452;50.796;4.994;2023-03-23T01:23:31;4.20;;;2.97;;
48665;SDS011;34452;50.796;4.994;2023-03-23T01:26:01;4.65;;;2.78;;
48665;SDS011;34452;50.796;4.994;2023-03-23T01:28:28;5.53;;;3.00;;
48665;SDS011;34452;50.796;4.994;2023-03-23T01:30:58;4.68;;;2.88;;
48665;SDS011;34452;50.796;4.994;2023-03-23T01:33:25;4.13;;;2.65;;
48665;SDS011;34452;50.796;4.994;2023-03-23T01:35:51;4.60;;;2.60;;
48665;SDS011;34452;50.796;4.994;2023-03-23T01:38:16;4.53;;;2.63;;
48665;SDS011;34452;50.796;4.994;2023-03-23T01:40:42;5.63;;;2.40;;
48665;SDS011;34452;50.796;4.994;2023-03-23T01:43:11;9.45;;;3.33;;
48665;SDS011;34452;50.796;4.994;2023-03-23T01:45:39;3.53;;;2.63;;
48665;SDS011;34452;50.796;4.994;2023-03-23T01:53:20;5.72;;;2.95;;
48665;SDS011;34452;50.796;4.994;2023-03-23T01:55:49;5.57;;;2.65;;
48665;SDS011;34452;50.796;4.994;2023-03-23T01:58:19;4.93;;;2.80;;
48665;SDS011;34452;50.796;4.994;2023-03-23T02:00:50;3.33;;;2.65;;
48665;SDS011;34452;50.796;4.994;2023-03-23T02:03:18;7.25;;;2.63;;
48665;SDS011;34452;50.796;4.994;2023-03-23T02:05:45;3.75;;;2.45;;
48665;SDS011;34452;50.796;4.994;2023-03-23T02:08:11;4.65;;;2.58;;
48665;SDS011;34452;50.796;4.994;2023-03-23T02:10:39;6.97;;;3.30;;
48665;SDS011;34452;50.796;4.994;2023-03-23T02:13:06;7.07;;;2.58;;
48665;SDS011;34452;50.796;4.994;2023-03-23T02:26:58;8.52;;;2.80;;
48665;SDS011;34452;50.796;4.994;2023-03-23T02:35:28;4.60;;;2.50;;
48665;SDS011;34452;50.796;4.994;2023-03-23T02:38:00;10.40;;;2.13;;
48665;SDS011;34452;50.796;4.994;2023-03-23T02:40:32;4.63;;;2.47;;
48665;SDS011;34452;50.796;4.994;2023-03-23T02:43:04;4.32;;;2.20;;
48665;SDS011;34452;50.796;4.994;2023-03-23T02:45:34;5.03;;;2.50;;
48665;SDS011;34452;50.796;4.994;2023-03-23T02:48:02;5.55;;;2.70;;
48665;SDS011;34452;50.796;4.994;2023-03-23T02:50:30;3.78;;;2.13;;
48665;SDS011;34452;50.796;4.994;2023-03-23T02:52:58;7.63;;;2.50;;
48665;SDS011;34452;50.796;4.994;2023-03-23T02:55:25;5.10;;;2.47;;
48665;SDS011;34452;50.796;4.994;2023-03-23T02:57:53;2.90;;;2.13;;
48665;SDS011;34452;50.796;4.994;2023-03-23T03:00:20;4.70;;;2.50;;
48665;SDS011;34452;50.796;4.994;2023-03-23T03:11:03;4.47;;;2.05;;
48665;SDS011;34452;50.796;4.994;2023-03-23T03:16:31;8.45;;;2.13;;
48665;SDS011;34452;50.796;4.994;2023-03-23T03:22:06;3.75;;;1.90;;
48665;SDS011;34452;50.796;4.994;2023-03-23T03:24:33;4.32;;;1.85;;
48665;SDS011;34452;50.796;4.994;2023-03-23T03:27:02;4.90;;;1.95;;
48665;SDS011;34452;50.796;4.994;2023-03-23T03:29:33;2.85;;;1.83;;
48665;SDS011;34452;50.796;4.994;2023-03-23T03:32:03;5.45;;;1.95;;
48665;SDS011;34452;50.796;4.994;2023-03-23T03:34:33;6.75;;;1.77;;
48665;SDS011;34452;50.796;4.994;2023-03-23T03:36:59;5.95;;;2.00;;
48665;SDS011;34452;50.796;4.994;2023-03-23T03:39:25;2.00;;;1.50;;
48665;SDS011;34452;50.796;4.994;2023-03-23T03:41:52;7.75;;;2.00;;
48665;SDS011;34452;50.796;4.994;2023-03-23T03:44:19;3.78;;;1.60;;
48665;SDS011;34452;50.796;4.994;2023-03-23T03:46:45;7.47;;;1.80;;
48665;SDS011;34452;50.796;4.994;2023-03-23T03:49:11;4.88;;;1.90;;
48665;SDS011;34452;50.796;4.994;2023-03-23T03:51:37;5.30;;;2.05;;
48665;SDS011;34452;50.796;4.994;2023-03-23T03:54:04;4.63;;;1.70;;
48665;SDS011;34452;50.796;4.994;2023-03-23T03:56:30;5.65;;;1.30;;
48665;SDS011;34452;50.796;4.994;2023-03-23T03:58:59;2.50;;;1.60;;
48665;SDS011;34452;50.796;4.994;2023-03-23T04:01:25;5.00;;;1.75;;
48665;SDS011;34452;50.796;4.994;2023-03-23T04:03:51;3.40;;;1.60;;
48665;SDS011;34452;50.796;4.994;2023-03-23T04:06:17;4.53;;;1.73;;
48665;SDS011;34452;50.796;4.994;2023-03-23T04:08:43;6.85;;;1.88;;
48665;SDS011;34452;50.796;4.994;2023-03-23T04:11:11;5.30;;;2.00;;
48665;SDS011;34452;50.796;4.994;2023-03-23T04:13:39;8.20;;;2.13;;
48665;SDS011;34452;50.796;4.994;2023-03-23T04:16:05;5.28;;;1.35;;
48665;SDS011;34452;50.796;4.994;2023-03-23T04:18:32;5.82;;;1.33;;
48665;SDS011;34452;50.796;4.994;2023-03-23T04:20:59;7.57;;;2.05;;
48665;SDS011;34452;50.796;4.994;2023-03-23T04:23:26;5.32;;;1.75;;
48665;SDS011;34452;50.796;4.994;2023-03-23T04:25:55;3.60;;;1.63;;
48665;SDS011;34452;50.796;4.994;2023-03-23T04:28:23;9.20;;;1.95;;
48665;SDS011;34452;50.796;4.994;2023-03-23T04:30:50;8.07;;;1.60;;
48665;SDS011;34452;50.796;4.994;2023-03-23T04:33:20;4.68;;;1.48;;
48665;SDS011;34452;50.796;4.994;2023-03-23T04:35:50;8.23;;;1.95;;
48665;SDS011;34452;50.796;4.994;2023-03-23T04:38:18;5.55;;;1.58;;
48665;SDS011;34452;50.796;4.994;2023-03-23T04:40:45;9.43;;;1.77;;
48665;SDS011;34452;50.796;4.994;2023-03-23T04:43:12;8.45;;;1.60;;
48665;SDS011;34452;50.796;4.994;2023-03-23T04:45:39;8.52;;;1.55;;
48665;SDS011;34452;50.796;4.994;2023-03-23T04:48:10;9.30;;;1.60;;
48665;SDS011;34452;50.796;4.994;2023-03-23T04:50:36;6.43;;;1.50;;
48665;SDS011;34452;50.796;4.994;2023-03-23T04:53:02;6.97;;;1.75;;
48665;SDS011;34452;50.796;4.994;2023-03-23T04:55:29;5.65;;;1.65;;
48665;SDS011;34452;50.796;4.994;2023-03-23T04:58:01;8.48;;;1.67;;
48665;SDS011;34452;50.796;4.994;2023-03-23T05:00:30;4.85;;;1.33;;
48665;SDS011;34452;50.796;4.994;2023-03-23T05:02:55;5.05;;;1.50;;
48665;SDS011;34452;50.796;4.994;2023-03-23T05:05:21;10.07;;;1.95;;
48665;SDS011;34452;50.796;4.994;2023-03-23T05:07:48;5.50;;;1.50;;
48665;SDS011;34452;50.796;4.994;2023-03-23T05:10:14;6.93;;;1.67;;
48665;SDS011;34452;50.796;4.994;2023-03-23T05:15:07;6.10;;;1.48;;
48665;SDS011;34452;50.796;4.994;2023-03-23T05:17:34;4.78;;;1.23;;
48665;SDS011;34452;50.796;4.994;2023-03-23T05:20:00;6.97;;;1.85;;
48665;SDS011;34452;50.796;4.994;2023-03-23T05:22:29;7.15;;;1.65;;
48665;SDS011;34452;50.796;4.994;2023-03-23T05:24:57;5.95;;;1.25;;
48665;SDS011;34452;50.796;4.994;2023-03-23T05:27:27;8.02;;;1.85;;
48665;SDS011;34452;50.796;4.994;2023-03-23T05:29:56;6.20;;;1.42;;
48665;SDS011;34452;50.796;4.994;2023-03-23T05:32:24;4.65;;;1.30;;
48665;SDS011;34452;50.796;4.994;2023-03-23T05:34:55;4.28;;;1.50;;
48665;SDS011;34452;50.796;4.994;2023-03-23T05:37:22;3.40;;;1.30;;
48665;SDS011;34452;50.796;4.994;2023-03-23T05:39:48;4.85;;;1.50;;
48665;SDS011;34452;50.796;4.994;2023-03-23T05:42:13;5.38;;;1.52;;
48665;SDS011;34452;50.796;4.994;2023-03-23T05:44:39;4.73;;;1.30;;
48665;SDS011;34452;50.796;4.994;2023-03-23T05:47:05;8.73;;;2.10;;
48665;SDS011;34452;50.796;4.994;2023-03-23T05:49:30;6.53;;;1.50;;
48665;SDS011;34452;50.796;4.994;2023-03-23T05:51:56;3.45;;;1.30;;
48665;SDS011;34452;50.796;4.994;2023-03-23T05:54:22;4.20;;;1.10;;
48665;SDS011;34452;50.796;4.994;2023-03-23T05:56:48;6.77;;;1.23;;
48665;SDS011;34452;50.796;4.994;2023-03-23T05:59:14;3.88;;;1.40;;
48665;SDS011;34452;50.796;4.994;2023-03-23T06:01:40;5.35;;;1.20;;
48665;SDS011;34452;50.796;4.994;2023-03-23T06:04:05;5.03;;;1.52;;
48665;SDS011;34452;50.796;4.994;2023-03-23T06:06:31;8.40;;;1.53;;
48665;SDS011;34452;50.796;4.994;2023-03-23T06:08:57;5.20;;;1.70;;
48665;SDS011;34452;50.796;4.994;2023-03-23T06:11:24;6.13;;;1.52;;
48665;SDS011;34452;50.796;4.994;2023-03-23T06:13:51;7.75;;;1.63;;
48665;SDS011;34452;50.796;4.994;2023-03-23T06:16:17;3.47;;;1.10;;
48665;SDS011;34452;50.796;4.994;2023-03-23T06:18:44;4.78;;;1.42;;
48665;SDS011;34452;50.796;4.994;2023-03-23T06:21:10;5.82;;;1.75;;
48665;SDS011;34452;50.796;4.994;2023-03-23T06:23:36;5.43;;;1.45;;
48665;SDS011;34452;50.796;4.994;2023-03-23T06:26:03;7.00;;;1.33;;
48665;SDS011;34452;50.796;4.994;2023-03-23T06:28:32;9.98;;;2.85;;
48665;SDS011;34452;50.796;4.994;2023-03-23T06:30:59;7.70;;;1.88;;
48665;SDS011;34452;50.796;4.994;2023-03-23T06:33:26;9.07;;;1.52;;
48665;SDS011;34452;50.796;4.994;2023-03-23T06:35:52;6.50;;;1.60;;
48665;SDS011;34452;50.796;4.994;2023-03-23T06:38:19;5.15;;;1.40;;
48665;SDS011;34452;50.796;4.994;2023-03-23T06:40:44;4.13;;;1.52;;
48665;SDS011;34452;50.796;4.994;2023-03-23T06:43:11;8.38;;;1.75;;
48665;SDS011;34452;50.796;4.994;2023-03-23T06:45:38;9.57;;;1.75;;
48665;SDS011;34452;50.796;4.994;2023-03-23T06:48:04;9.32;;;1.30;;
48665;SDS011;34452;50.796;4.994;2023-03-23T06:50:30;4.80;;;1.48;;
48665;SDS011;34452;50.796;4.994;2023-03-23T06:52:56;5.07;;;1.75;;
48665;SDS011;34452;50.796;4.994;2023-03-23T06:55:22;23.05;;;2.22;;
48665;SDS011;34452;50.796;4.994;2023-03-23T06:57:48;10.82;;;1.92;;
48665;SDS011;34452;50.796;4.994;2023-03-23T07:00:14;6.43;;;1.27;;
48665;SDS011;34452;50.796;4.994;2023-03-23T07:02:40;6.35;;;1.52;;
48665;SDS011;34452;50.796;4.994;2023-03-23T07:07:34;9.43;;;2.00;;
48665;SDS011;34452;50.796;4.994;2023-03-23T07:10:01;6.57;;;1.95;;
48665;SDS011;34452;50.796;4.994;2023-03-23T07:12:28;7.32;;;1.38;;
48665;SDS011;34452;50.796;4.994;2023-03-23T07:14:54;6.13;;;1.10;;
48665;SDS011;34452;50.796;4.994;2023-03-23T07:17:20;6.47;;;1.60;;
48665;SDS011;34452;50.796;4.994;2023-03-23T07:19:46;6.15;;;1.40;;
48665;SDS011;34452;50.796;4.994;2023-03-23T07:22:12;4.68;;;1.42;;
48665;SDS011;34452;50.796;4.994;2023-03-23T07:24:38;5.97;;;1.83;;
48665;SDS011;34452;50.796;4.994;2023-03-23T07:27:03;9.60;;;1.60;;
48665;SDS011;34452;50.796;4.994;2023-03-23T07:29:30;4.13;;;1.35;;
48665;SDS011;34452;50.796;4.994;2023-03-23T07:31:59;9.25;;;1.45;;
48665;SDS011;34452;50.796;4.994;2023-03-23T07:34:26;7.65;;;1.52;;
48665;SDS011;34452;50.796;4.994;2023-03-23T07:39:18;4.28;;;1.98;;
48665;SDS011;34452;50.796;4.994;2023-03-23T07:41:44;8.23;;;1.65;;
48665;SDS011;34452;50.796;4.994;2023-03-23T07:44:10;6.57;;;1.90;;
48665;SDS011;34452;50.796;4.994;2023-03-23T07:46:35;5.03;;;1.40;;
48665;SDS011;34452;50.796;4.994;2023-03-23T07:49:01;10.48;;;3.08;;
48665;SDS011;34452;50.796;4.994;2023-03-23T07:51:30;6.20;;;1.70;;
48665;SDS011;34452;50.796;4.994;2023-03-23T07:56:22;7.05;;;1.55;;
48665;SDS011;34452;50.796;4.994;2023-03-23T07:58:48;6.22;;;1.38;;
48665;SDS011;34452;50.796;4.994;2023-03-23T08:01:14;5.15;;;1.50;;
48665;SDS011;34452;50.796;4.994;2023-03-23T08:03:41;9.02;;;1.75;;
48665;SDS011;34452;50.796;4.994;2023-03-23T08:06:07;7.25;;;1.42;;
48665;SDS011;34452;50.796;4.994;2023-03-23T08:08:33;5.30;;;1.27;;
48665;SDS011;34452;50.796;4.994;2023-03-23T08:10:59;8.02;;;2.08;;
48665;SDS011;34452;50.796;4.994;2023-03-23T08:13:25;6.35;;;1.60;;
48665;SDS011;34452;50.796;4.994;2023-03-23T08:15:51;9.45;;;1.63;;
48665;SDS011;34452;50.796;4.994;2023-03-23T08:18:16;8.75;;;2.28;;
48665;SDS011;34452;50.796;4.994;2023-03-23T08:20:42;4.93;;;1.80;;
48665;SDS011;34452;50.796;4.994;2023-03-23T08:23:09;8.40;;;1.60;;
48665;SDS011;34452;50.796;4.994;2023-03-23T08:25:36;4.68;;;1.52;;
48665;SDS011;34452;50.796;4.994;2023-03-23T08:28:02;4.00;;;1.20;;
48665;SDS011;34452;50.796;4.994;2023-03-23T08:30:28;7.85;;;1.80;;
48665;SDS011;34452;50.796;4.994;2023-03-23T08:32:55;7.28;;;1.98;;
48665;SDS011;34452;50.796;4.994;2023-03-23T08:35:22;9.32;;;1.58;;
48665;SDS011;34452;50.796;4.994;2023-03-23T08:37:48;5.75;;;1.40;;
48665;SDS011;34452;50.796;4.994;2023-03-23T08:40:16;6.78;;;1.38;;
48665;SDS011;34452;50.796;4.994;2023-03-23T08:42:44;16.50;;;3.03;;
48665;SDS011;34452;50.796;4.994;2023-03-23T08:45:12;8.07;;;2.08;;
48665;SDS011;34452;50.796;4.994;2023-03-23T08:47:40;11.48;;;1.70;;
48665;SDS011;34452;50.796;4.994;2023-03-23T08:50:06;3.70;;;1.50;;
48665;SDS011;34452;50.796;4.994;2023-03-23T08:52:35;4.70;;;1.40;;
48665;SDS011;34452;50.796;4.994;2023-03-23T08:55:02;1.73;;;1.05;;
48665;SDS011;34452;50.796;4.994;2023-03-23T08:57:29;9.85;;;1.98;;
48665;SDS011;34452;50.796;4.994;2023-03-23T08:59:55;5.18;;;0.90;;
48665;SDS011;34452;50.796;4.994;2023-03-23T09:02:25;3.15;;;1.13;;
48665;SDS011;34452;50.796;4.994;2023-03-23T09:04:52;6.10;;;0.77;;
48665;SDS011;34452;50.796;4.994;2023-03-23T09:07:18;2.70;;;0.70;;
48665;SDS011;34452;50.796;4.994;2023-03-23T09:09:44;3.65;;;0.68;;
48665;SDS011;34452;50.796;4.994;2023-03-23T09:12:10;1.93;;;0.90;;
48665;SDS011;34452;50.796;4.994;2023-03-23T09:14:37;6.80;;;0.95;;
48665;SDS011;34452;50.796;4.994;2023-03-23T09:17:04;2.95;;;1.00;;
48665;SDS011;34452;50.796;4.994;2023-03-23T09:19:31;1.95;;;0.90;;
48665;SDS011;34452;50.796;4.994;2023-03-23T09:21:58;4.25;;;0.95;;
48665;SDS011;34452;50.796;4.994;2023-03-23T09:24:25;3.72;;;1.60;;
48665;SDS011;34452;50.796;4.994;2023-03-23T09:26:52;4.55;;;0.80;;
48665;SDS011;34452;50.796;4.994;2023-03-23T09:29:18;3.80;;;0.82;;
48665;SDS011;34452;50.796;4.994;2023-03-23T09:31:44;4.88;;;0.90;;
48665;SDS011;34452;50.796;4.994;2023-03-23T09:34:11;2.35;;;0.80;;
48665;SDS011;34452;50.796;4.994;2023-03-23T09:36:38;3.22;;;0.60;;
48665;SDS011;34452;50.796;4.994;2023-03-23T09:39:05;4.47;;;0.73;;
48665;SDS011;34452;50.796;4.994;2023-03-23T09:41:55;2.25;;;0.65;;
48665;SDS011;34452;50.796;4.994;2023-03-23T09:47:38;4.88;;;1.10;;
48665;SDS011;34452;50.796;4.994;2023-03-23T09:52:43;1.80;;;0.60;;
48665;SDS011;34452;50.796;4.994;2023-03-23T09:57:54;1.48;;;0.55;;
48665;SDS011;34452;50.796;4.994;2023-03-23T10:00:40;1.60;;;0.70;;
48665;SDS011;34452;50.796;4.994;2023-03-23T10:05:59;2.50;;;1.00;;
48665;SDS011;34452;50.796;4.994;2023-03-23T10:08:26;2.58;;;0.98;;
48665;SDS011;34452;50.796;4.994;2023-03-23T10:10:59;2.80;;;1.00;;
48665;SDS011;34452;50.796;4.994;2023-03-23T10:16:29;4.05;;;1.13;;
48665;SDS011;34452;50.796;4.994;2023-03-23T10:19:03;4.05;;;1.52;;
48665;SDS011;34452;50.796;4.994;2023-03-23T10:21:34;6.22;;;1.80;;
48665;SDS011;34452;50.796;4.994;2023-03-23T10:24:07;2.88;;;1.90;;
48665;SDS011;34452;50.796;4.994;2023-03-23T10:26:38;5.95;;;1.50;;
48665;SDS011;34452;50.796;4.994;2023-03-23T10:29:22;6.85;;;1.58;;
48665;SDS011;34452;50.796;4.994;2023-03-23T10:31:54;2.10;;;1.40;;
48665;SDS011;34452;50.796;4.994;2023-03-23T10:37:21;6.18;;;1.50;;
48665;SDS011;34452;50.796;4.994;2023-03-23T10:39:50;4.68;;;1.80;;
48665;SDS011;34452;50.796;4.994;2023-03-23T10:42:21;3.08;;;1.20;;
48665;SDS011;34452;50.796;4.994;2023-03-23T10:44:49;6.38;;;1.65;;
48665;SDS011;34452;50.796;4.994;2023-03-23T10:47:16;4.18;;;1.38;;
48665;SDS011;34452;50.796;4.994;2023-03-23T10:49:45;4.43;;;1.30;;
48665;SDS011;34452;50.796;4.994;2023-03-23T10:55:04;6.18;;;1.35;;
48665;SDS011;34452;50.796;4.994;2023-03-23T10:57:59;2.78;;;1.33;;
48665;SDS011;34452;50.796;4.994;2023-03-23T11:00:58;4.65;;;1.98;;
48665;SDS011;34452;50.796;4.994;2023-03-23T11:03:28;4.45;;;1.52;;
48665;SDS011;34452;50.796;4.994;2023-03-23T11:05:56;4.78;;;1.60;;
48665;SDS011;34452;50.796;4.994;2023-03-23T11:11:25;4.22;;;1.50;;
48665;SDS011;34452;50.796;4.994;2023-03-23T11:16:55;2.45;;;1.73;;
48665;SDS011;34452;50.796;4.994;2023-03-23T11:19:24;7.70;;;2.03;;
48665;SDS011;34452;50.796;4.994;2023-03-23T11:21:52;9.13;;;1.98;;
48665;SDS011;34452;50.796;4.994;2023-03-23T11:24:22;6.47;;;1.98;;
48665;SDS011;34452;50.796;4.994;2023-03-23T11:26:51;7.20;;;2.00;;
48665;SDS011;34452;50.796;4.994;2023-03-23T11:29:20;5.97;;;2.33;;
48665;SDS011;34452;50.796;4.994;2023-03-23T11:31:50;4.20;;;2.15;;
48665;SDS011;34452;50.796;4.994;2023-03-23T11:34:20;6.88;;;2.33;;
48665;SDS011;34452;50.796;4.994;2023-03-23T11:36:50;5.85;;;2.67;;
48665;SDS011;34452;50.796;4.994;2023-03-23T11:39:22;8.75;;;2.45;;
48665;SDS011;34452;50.796;4.994;2023-03-23T11:41:50;5.85;;;2.20;;
48665;SDS011;34452;50.796;4.994;2023-03-23T11:44:16;5.60;;;2.83;;
48665;SDS011;34452;50.796;4.994;2023-03-23T11:52:14;7.28;;;2.60;;
48665;SDS011;34452;50.796;4.994;2023-03-23T11:54:51;10.00;;;2.55;;
48665;SDS011;34452;50.796;4.994;2023-03-23T11:57:21;7.07;;;2.15;;
48665;SDS011;34452;50.796;4.994;2023-03-23T11:59:47;5.97;;;2.17;;
48665;SDS011;34452;50.796;4.994;2023-03-23T12:10:54;5.63;;;2.10;;
48665;SDS011;34452;50.796;4.994;2023-03-23T12:22:17;11.45;;;2.63;;
48665;SDS011;34452;50.796;4.994;2023-03-23T12:30:23;6.60;;;2.10;;
48665;SDS011;34452;50.796;4.994;2023-03-23T12:32:58;9.80;;;2.25;;
48665;SDS011;34452;50.796;4.994;2023-03-23T12:35:37;7.70;;;2.47;;
48665;SDS011;34452;50.796;4.994;2023-03-23T12:41:17;9.95;;;2.55;;
48665;SDS011;34452;50.796;4.994;2023-03-23T12:46:46;8.15;;;2.00;;
48665;SDS011;34452;50.796;4.994;2023-03-23T12:49:22;7.78;;;1.90;;
48665;SDS011;34452;50.796;4.994;2023-03-23T12:51:56;6.57;;;1.60;;
48665;SDS011;34452;50.796;4.994;2023-03-23T12:57:12;10.32;;;2.80;;
48665;SDS011;34452;50.796;4.994;2023-03-23T13:00:02;8.30;;;2.40;;
48665;SDS011;34452;50.796;4.994;2023-03-23T13:02:44;9.57;;;2.75;;
48665;SDS011;34452;50.796;4.994;2023-03-23T13:08:11;13.10;;;2.95;;
48665;SDS011;34452;50.796;4.994;2023-03-23T13:10:58;8.45;;;2.42;;
48665;SDS011;34452;50.796;4.994;2023-03-23T13:16:12;16.88;;;4.15;;
48665;SDS011;34452;50.796;4.994;2023-03-23T13:24:13;11.65;;;3.15;;
48665;SDS011;34452;50.796;4.994;2023-03-23T13:26:42;15.48;;;3.58;;
48665;SDS011;34452;50.796;4.994;2023-03-23T13:29:11;14.68;;;4.18;;
48665;SDS011;34452;50.796;4.994;2023-03-23T13:31:44;10.05;;;3.70;;
48665;SDS011;34452;50.796;4.994;2023-03-23T13:36:57;11.55;;;2.83;;
48665;SDS011;34452;50.796;4.994;2023-03-23T13:39:28;8.07;;;2.50;;
48665;SDS011;34452;50.796;4.994;2023-03-23T13:47:46;9.38;;;2.95;;
48665;SDS011;34452;50.796;4.994;2023-03-23T13:52:56;5.30;;;2.35;;
48665;SDS011;34452;50.796;4.994;2023-03-23T14:03:36;13.63;;;3.40;;
48665;SDS011;34452;50.796;4.994;2023-03-23T14:10:58;11.23;;;2.88;;
48665;SDS011;34452;50.796;4.994;2023-03-23T14:13:31;11.00;;;2.55;;
48665;SDS011;34452;50.796;4.994;2023-03-23T14:16:00;10.80;;;2.90;;
48665;SDS011;34452;50.796;4.994;2023-03-23T14:18:31;9.38;;;2.80;;
48665;SDS011;34452;50.796;4.994;2023-03-23T14:21:00;9.70;;;2.58;;
48665;SDS011;34452;50.796;4.994;2023-03-23T14:25:54;11.82;;;2.78;;
48665;SDS011;34452;50.796;4.994;2023-03-23T14:28:22;7.93;;;2.40;;
48665;SDS011;34452;50.796;4.994;2023-03-23T14:30:52;9.93;;;2.50;;
48665;SDS011;34452;50.796;4.994;2023-03-23T14:33:19;12.98;;;2.72;;
48665;SDS011;34452;50.796;4.994;2023-03-23T14:38:16;9.27;;;2.58;;
48665;SDS011;34452;50.796;4.994;2023-03-23T14:40:46;12.00;;;3.33;;
48665;SDS011;34452;50.796;4.994;2023-03-23T14:45:40;8.13;;;2.25;;
48665;SDS011;34452;50.796;4.994;2023-03-23T14:48:06;9.77;;;2.60;;
48665;SDS011;34452;50.796;4.994;2023-03-23T14:53:32;7.22;;;2.35;;
48665;SDS011;34452;50.796;4.994;2023-03-23T14:56:02;12.18;;;3.55;;
48665;SDS011;34452;50.796;4.994;2023-03-23T14:58:48;9.25;;;2.47;;
48665;SDS011;34452;50.796;4.994;2023-03-23T15:01:18;7.05;;;2.20;;
48665;SDS011;34452;50.796;4.994;2023-03-23T15:03:49;7.93;;;2.45;;
48665;SDS011;34452;50.796;4.994;2023-03-23T15:06:20;13.45;;;2.80;;
48665;SDS011;34452;50.796;4.994;2023-03-23T15:08:48;6.45;;;2.10;;
48665;SDS011;34452;50.796;4.994;2023-03-23T15:13:43;7.13;;;2.42;;
48665;SDS011;34452;50.796;4.994;2023-03-23T15:16:13;15.15;;;2.35;;
48665;SDS011;34452;50.796;4.994;2023-03-23T15:19:11;6.90;;;1.65;;
48665;SDS011;34452;50.796;4.994;2023-03-23T15:27:51;7.75;;;2.03;;
48665;SDS011;34452;50.796;4.994;2023-03-23T15:35:33;6.53;;;1.80;;
48665;SDS011;34452;50.796;4.994;2023-03-23T15:38:01;9.70;;;2.40;;
48665;SDS011;34452;50.796;4.994;2023-03-23T15:40:39;9.82;;;2.50;;
48665;SDS011;34452;50.796;4.994;2023-03-23T15:43:31;6.25;;;1.75;;
48665;SDS011;34452;50.796;4.994;2023-03-23T15:45:58;12.88;;;2.47;;
48665;SDS011;34452;50.796;4.994;2023-03-23T15:51:33;11.20;;;2.58;;
48665;SDS011;34452;50.796;4.994;2023-03-23T15:53:58;10.55;;;3.33;;
48665;SDS011;34452;50.796;4.994;2023-03-23T15:56:25;9.65;;;2.95;;
48665;SDS011;34452;50.796;4.994;2023-03-23T15:58:51;10.82;;;2.28;;
48665;SDS011;34452;50.796;4.994;2023-03-23T16:01:18;11.70;;;2.88;;
48665;SDS011;34452;50.796;4.994;2023-03-23T16:03:48;9.55;;;2.40;;
48665;SDS011;34452;50.796;4.994;2023-03-23T16:06:17;9.10;;;2.17;;
48665;SDS011;34452;50.796;4.994;2023-03-23T16:08:44;8.73;;;2.30;;
48665;SDS011;34452;50.796;4.994;2023-03-23T16:11:12;9.10;;;2.50;;
48665;SDS011;34452;50.796;4.994;2023-03-23T16:13:39;5.72;;;1.40;;
48665;SDS011;34452;50.796;4.994;2023-03-23T16:16:05;11.23;;;2.47;;
48665;SDS011;34452;50.796;4.994;2023-03-23T16:18:36;12.80;;;2.65;;
48665;SDS011;34452;50.796;4.994;2023-03-23T16:21:01;10.15;;;2.78;;
48665;SDS011;34452;50.796;4.994;2023-03-23T16:23:27;12.15;;;3.00;;
48665;SDS011;34452;50.796;4.994;2023-03-23T16:25:53;11.10;;;2.80;;
48665;SDS011;34452;50.796;4.994;2023-03-23T16:28:19;8.80;;;2.40;;
48665;SDS011;34452;50.796;4.994;2023-03-23T16:30:45;11.57;;;2.70;;
48665;SDS011;34452;50.796;4.994;2023-03-23T16:33:11;8.73;;;2.42;;
48665;SDS011;34452;50.796;4.994;2023-03-23T16:35:37;13.05;;;2.78;;
48665;SDS011;34452;50.796;4.994;2023-03-23T16:38:03;12.15;;;2.30;;
48665;SDS011;34452;50.796;4.994;2023-03-23T16:40:29;17.02;;;3.58;;
48665;SDS011;34452;50.796;4.994;2023-03-23T16:42:57;7.65;;;2.35;;
48665;SDS011;34452;50.796;4.994;2023-03-23T16:45:22;7.45;;;2.15;;
48665;SDS011;34452;50.796;4.994;2023-03-23T16:47:50;15.73;;;2.42;;
48665;SDS011;34452;50.796;4.994;2023-03-23T16:50:16;9.57;;;2.20;;
48665;SDS011;34452;50.796;4.994;2023-03-23T16:52:43;13.43;;;2.35;;
48665;SDS011;34452;50.796;4.994;2023-03-23T16:55:11;6.47;;;1.67;;
48665;SDS011;34452;50.796;4.994;2023-03-23T16:57:39;8.68;;;2.17;;
48665;SDS011;34452;50.796;4.994;2023-03-23T17:00:06;10.48;;;2.20;;
48665;SDS011;34452;50.796;4.994;2023-03-23T17:02:35;7.03;;;2.03;;
48665;SDS011;34452;50.796;4.994;2023-03-23T17:05:01;10.90;;;2.28;;
48665;SDS011;34452;50.796;4.994;2023-03-23T17:07:28;12.02;;;2.67;;
48665;SDS011;34452;50.796;4.994;2023-03-23T17:09:53;10.88;;;2.33;;
48665;SDS011;34452;50.796;4.994;2023-03-23T17:12:19;6.50;;;1.93;;
48665;SDS011;34452;50.796;4.994;2023-03-23T17:14:45;13.15;;;2.85;;
48665;SDS011;34452;50.796;4.994;2023-03-23T17:17:10;10.40;;;2.55;;
48665;SDS011;34452;50.796;4.994;2023-03-23T17:19:36;11.95;;;2.88;;
48665;SDS011;34452;50.796;4.994;2023-03-23T17:22:02;17.65;;;2.53;;
48665;SDS011;34452;50.796;4.994;2023-03-23T17:24:28;10.90;;;3.25;;
48665;SDS011;34452;50.796;4.994;2023-03-23T17:26:54;11.63;;;2.72;;
48665;SDS011;34452;50.796;4.994;2023-03-23T17:29:20;9.85;;;2.72;;
48665;SDS011;34452;50.796;4.994;2023-03-23T17:31:47;9.80;;;2.80;;
48665;SDS011;34452;50.796;4.994;2023-03-23T17:34:14;13.63;;;3.05;;
48665;SDS011;34452;50.796;4.994;2023-03-23T17:36:41;14.20;;;2.13;;
48665;SDS011;34452;50.796;4.994;2023-03-23T17:39:07;13.32;;;2.58;;
48665;SDS011;34452;50.796;4.994;2023-03-23T17:41:32;11.65;;;2.45;;
48665;SDS011;34452;50.796;4.994;2023-03-23T17:43:58;15.68;;;3.22;;
48665;SDS011;34452;50.796;4.994;2023-03-23T17:46:24;8.93;;;2.50;;
48665;SDS011;34452;50.796;4.994;2023-03-23T17:48:50;11.18;;;3.00;;
48665;SDS011;34452;50.796;4.994;2023-03-23T17:51:16;15.00;;;2.57;;